Latest Weather Observations for McCluer Island

IDD60801

Issued at 11:31 pm CST Tuesday 12 December 2017 (issued every 30 minutes, with the page automatically refreshed every 10 minutes)

About weather observations | Map of weather stations | Latest weather observations for NT | Other Formats
Station Details ID: 014274 Name: MCCLUER ISLAND Lat: -11.05 Lon: 132.98 Height: 1.4 m
Data from the previous 72 hours. | See also: Recent months at McCluer Island
Date/Time
CST
Temp
°C
App
Temp
°C
Dew
Point
°C
Rel
Hum
%
Delta-T
°C
Wind Press
QNH
hPa
Press
MSL
hPa
Rain since
9am
mm
Dir  Spd
km/h
Gust
km/h
Spd
kts
Gust
kts
12/11:30pm 30.1 33.8 24.5 72 3.9 N 13 17 7 9 1009.1 - 0.0
12/11:00pm 30.3 33.8 24.9 73 3.8 N 15 20 8 11 1008.8 - 0.0
12/10:30pm 30.4 34.4 25.0 73 3.8 N 13 17 7 9 1008.8 - 0.0
12/10:00pm 30.6 35.1 25.2 73 3.8 N 11 15 6 8 1008.5 - 0.0
12/09:30pm 30.4 35.0 24.8 72 3.9 N 9 11 5 6 1008.2 - 0.0
12/09:00pm 30.4 35.2 24.5 70 4.1 NNW 7 9 4 5 1008.1 1008.1 0.0
12/08:30pm 30.4 34.8 24.5 70 4.1 NNW 9 11 5 6 1008.0 - 0.0
12/08:00pm 30.6 35.0 25.0 72 3.9 NNW 11 15 6 8 1007.2 - 0.0
12/07:30pm 30.6 34.4 24.7 71 4.1 N 13 17 7 9 1007.2 - 0.0
12/07:00pm 30.9 35.2 25.5 73 3.8 N 13 17 7 9 1007.2 - 0.0
12/06:30pm 30.8 35.2 24.4 68 4.5 NNW 9 13 5 7 1007.3 - 0.0
12/06:00pm 30.9 34.6 24.5 68 4.5 NNW 13 15 7 8 1007.0 1007.0 0.0
12/05:30pm 31.3 35.2 25.4 71 4.2 NNW 15 19 8 10 1006.6 - 0.0
12/05:00pm 31.7 35.5 25.3 69 4.5 N 15 19 8 10 1006.5 - 0.0
12/04:30pm 32.0 36.2 25.3 67 4.7 N 13 17 7 9 1006.4 - 0.0
12/04:00pm 32.3 37.0 26.1 70 4.4 N 13 19 7 10 1006.3 - 0.0
12/03:30pm 32.2 36.4 25.3 67 4.9 N 13 17 7 9 1006.4 - 0.0
12/03:00pm 32.9 36.9 23.8 58 6.3 NNW 9 11 5 6 1006.9 1006.9 0.0
12/02:30pm 33.2 37.6 23.8 57 6.6 W 7 9 4 5 1007.3 - 0.0
12/02:00pm 33.4 38.3 24.6 60 6.2 W 7 11 4 6 1007.6 - 0.0
12/01:30pm 33.3 37.7 24.5 60 6.2 W 9 13 5 7 1007.8 - 0.0
12/01:00pm 32.5 36.7 24.8 64 5.4 W 11 15 6 8 1008.2 - 0.0
12/12:30pm 32.6 36.7 24.6 62 5.6 W 11 15 6 8 1008.6 - 0.0
12/12:00pm 32.8 37.4 25.3 64 5.3 SW 11 15 6 8 1009.3 1009.3 0.0
12/11:30am 32.5 37.1 25.3 66 5.1 SW 11 13 6 7 1009.8 - 0.0
12/11:00am 32.8 37.0 24.8 62 5.6 WSW 11 15 6 8 1010.2 - 0.0
12/10:30am 32.6 37.2 25.4 66 5.1 W 11 15 6 8 1010.5 - 0.0
12/10:00am 32.0 36.4 25.6 69 4.5 WSW 13 15 7 8 1010.7 - 0.0
12/09:30am 31.3 35.5 25.9 73 3.8 SW 15 20 8 11 1010.7 - 0.0
12/09:00am 30.9 35.2 25.5 73 3.8 SW 13 17 7 9 1010.6 1010.6 0.0
12/08:30am 31.3 35.3 24.4 66 4.8 WSW 11 15 6 8 1010.5 - 0.0
12/08:00am 31.0 35.1 24.6 68 4.5 W 11 13 6 7 1010.3 - 0.0
12/07:30am 30.7 35.7 24.8 71 4.1 E 7 13 4 7 1010.0 - 0.0
12/07:00am 30.2 34.4 24.8 73 3.8 WNW 11 15 6 8 1009.6 - 0.0
12/06:30am 29.6 34.0 24.5 74 3.6 WNW 9 11 5 6 1009.2 - 0.0
12/06:00am 29.5 34.0 24.6 75 3.4 W 9 13 5 7 1008.9 1008.9 0.0
12/05:30am 29.8 34.2 25.1 76 3.3 W 11 15 6 8 1008.4 - 0.0
12/05:00am 29.7 33.6 24.8 75 3.4 W 13 17 7 9 1008.0 - 0.0
12/04:30am 29.7 33.3 25.0 76 3.3 W 15 17 8 9 1007.8 - 0.0
12/04:00am 29.7 32.9 25.0 76 3.3 WNW 17 20 9 11 1007.8 - 0.0
12/03:30am 29.9 32.9 25.2 76 3.3 WNW 19 22 10 12 1007.8 - 0.0
12/03:00am 29.9 32.9 25.2 76 3.3 WNW 19 22 10 12 1008.0 1008.0 0.0
12/02:30am 29.9 33.8 24.8 74 3.6 W 13 17 7 9 1008.7 - 0.0
12/02:00am 30.0 34.3 24.9 74 3.6 W 11 15 6 8 1009.1 - 0.0
12/01:30am 29.8 33.2 24.7 74 3.6 WNW 15 19 8 10 1009.2 - 0.0
12/01:00am 29.9 33.4 24.8 74 3.6 WNW 15 17 8 9 1009.5 - 0.0
12/12:30am 30.0 33.3 25.1 75 3.4 WNW 17 20 9 11 1009.4 - 0.0
12/12:00am 30.1 34.0 24.9 73 3.7 WNW 13 19 7 10 1010.1 1010.1 0.0
 
Date/Time
CST
Temp
°C
App
Temp
°C
Dew
Point
°C
Rel
Hum
%
Delta-T
°C
Wind Press
QNH
hPa
Press
MSL
hPa
Rain since
9am
mm
Dir  Spd
km/h
Gust
km/h
Spd
kts
Gust
kts
11/11:30pm 30.3 34.2 25.4 75 3.5 NNW 15 17 8 9 1010.1 - 0.0
11/11:00pm 30.2 34.4 25.3 75 3.5 NNW 13 15 7 8 1010.2 - 0.0
11/10:30pm 30.3 34.3 25.1 73 3.7 NW 13 17 7 9 1010.3 - 0.0
11/10:00pm 30.2 34.4 24.8 73 3.8 NW 11 15 6 8 1009.9 - 0.0
11/09:30pm 30.3 33.3 24.7 72 3.9 NNW 17 20 9 11 1009.5 - 0.0
11/09:00pm 30.6 33.9 25.7 75 3.5 NNW 19 22 10 12 1009.0 1009.0 0.0
11/08:30pm 30.4 33.5 24.8 72 3.9 NNW 17 20 9 11 1009.0 - 0.0
11/08:00pm 30.4 33.1 24.8 72 3.9 NNW 19 20 10 11 1008.9 - 0.0
11/07:30pm 30.6 34.8 25.4 74 3.7 N 13 15 7 8 1008.5 - 0.0
11/07:00pm 30.8 35.2 25.6 74 3.7 N 13 15 7 8 1008.2 - 0.0
11/06:30pm 30.8 35.0 25.4 73 3.8 N 13 15 7 8 1007.9 - 0.0
11/06:00pm 30.9 35.3 25.0 71 4.2 N 11 15 6 8 1007.3 1007.3 0.0
11/05:30pm 31.3 35.9 25.9 73 3.8 N 13 19 7 10 1007.0 - 0.0
11/05:00pm 31.4 36.0 25.3 70 4.3 N 11 15 6 8 1007.0 - 0.0
11/04:30pm 31.7 35.5 25.3 69 4.5 N 15 17 8 9 1006.6 - 0.0
11/04:00pm 31.7 35.9 25.3 69 4.5 N 13 17 7 9 1006.8 - 0.0
11/03:30pm 31.7 35.7 25.1 68 4.7 N 13 17 7 9 1006.9 - 0.0
11/03:00pm 31.8 36.4 24.7 66 5.0 N 9 13 5 7 1007.2 1007.2 0.0
11/02:30pm 32.3 37.7 25.4 67 4.9 N 7 13 4 7 1007.6 - 0.0
11/02:00pm 32.2 36.6 24.5 64 5.4 NNW 9 9 5 5 1008.0 - 0.0
11/01:30pm 33.3 38.8 25.6 64 5.5 WNW 7 9 4 5 1008.4 - 0.0
11/01:00pm 32.4 36.8 24.4 62 5.6 WNW 9 11 5 6 1008.8 - 0.0
11/12:30pm 32.6 37.9 25.2 65 5.2 NW 7 9 4 5 1009.5 - 0.0
11/12:00pm 32.6 37.3 24.9 64 5.4 WNW 9 13 5 7 1009.9 1009.9 0.0
11/11:30am 31.8 36.9 24.9 67 4.9 N 7 9 4 5 1010.6 - 0.0
11/11:00am 31.6 36.5 24.7 67 4.8 NW 7 9 4 5 1011.2 - 0.0
11/10:30am 32.1 36.8 24.9 65 5.1 NW 9 11 5 6 1011.3 - 0.0
11/10:00am 32.3 37.3 25.4 67 4.9 WNW 9 13 5 7 1011.2 - 0.0
11/09:30am 31.8 36.7 25.2 68 4.7 NW 9 13 5 7 1011.3 - 0.0
11/09:00am 31.5 36.2 25.6 71 4.2 NNW 11 13 6 7 1011.5 1011.5 0.0
11/08:30am 30.9 35.9 24.8 70 4.3 N 7 11 4 6 1011.3 - 0.0
11/08:00am 30.2 34.7 24.6 72 3.9 N 9 13 5 7 1011.1 - 0.0
11/07:30am 30.1 35.6 25.6 77 3.2 NNW 7 11 4 6 1010.8 - 0.0
11/07:00am 29.5 34.2 25.0 77 3.2 NNW 9 11 5 6 1010.4 - 0.0
11/06:30am 29.3 33.5 24.8 77 3.1 NNW 11 13 6 7 1010.2 - 0.0
11/06:00am 29.2 33.4 24.7 77 3.1 NW 11 15 6 8 1009.9 1009.9 0.0
11/05:30am 29.4 34.0 24.7 76 3.3 NNW 9 13 5 7 1009.7 - 0.0
11/05:00am 29.6 34.3 24.9 76 3.3 N 9 13 5 7 1009.3 - 0.0
11/04:30am 29.5 33.2 24.6 75 3.4 N 13 17 7 9 1009.0 - 0.0
11/04:00am 29.7 33.1 24.6 74 3.6 N 15 19 8 10 1008.8 - 0.0
11/03:30am 29.8 33.0 24.9 75 3.4 N 17 20 9 11 1008.7 - 0.0
11/03:00am 29.7 32.3 24.6 74 3.6 N 19 24 10 13 1008.6 1008.6 0.0
11/02:30am 29.8 32.4 25.5 78 3.0 N 22 26 12 14 1008.6 - 0.0
11/02:00am 29.9 32.0 25.4 77 3.2 N 24 28 13 15 1008.7 - 0.0
11/01:30am 30.0 32.1 25.3 76 3.3 N 24 28 13 15 1008.8 - 0.0
11/01:00am 29.9 31.3 24.8 74 3.6 N 26 30 14 16 1009.2 - 0.0
11/12:30am 30.2 32.3 25.9 78 3.1 N 26 32 14 17 1009.5 - 0.0
11/12:00am 30.2 32.0 25.5 76 3.3 N 26 30 14 16 1009.8 1009.8 0.0
 
Date/Time
CST
Temp
°C
App
Temp
°C
Dew
Point
°C
Rel
Hum
%
Delta-T
°C
Wind Press
QNH
hPa
Press
MSL
hPa
Rain since
9am
mm
Dir  Spd
km/h
Gust
km/h
Spd
kts
Gust
kts
10/11:30pm 30.1 32.1 25.2 75 3.5 N 24 28 13 15 1009.8 - 0.0
10/11:00pm 30.3 32.6 25.6 76 3.3 N 24 28 13 15 1009.9 - 0.0
10/10:30pm 30.2 32.7 25.3 75 3.5 N 22 26 12 14 1010.1 - 0.0
10/10:00pm 30.2 32.2 24.6 72 3.9 N 22 26 12 14 1010.0 - 0.0
10/09:30pm 30.2 32.6 24.6 72 3.9 N 20 24 11 13 1009.8 - 0.0
10/09:00pm 30.2 32.8 24.6 72 3.9 NNE 19 22 10 12 1009.6 1009.6 0.0
10/08:30pm 30.3 33.8 24.9 73 3.8 NE 15 19 8 10 1009.6 - 0.0
10/08:00pm 30.0 33.0 23.4 67 4.5 NE 13 15 7 8 1009.5 - 0.0
10/07:30pm 30.2 33.3 24.1 70 4.2 NE 15 19 8 10 1009.0 - 0.0
10/07:00pm 30.4 33.6 25.0 73 3.8 NE 17 20 9 11 1008.6 - 0.0
10/06:30pm 30.3 32.8 23.2 65 4.9 ENE 15 20 8 11 1008.1 - 0.0
10/06:00pm 30.5 33.4 23.9 68 4.6 E 15 17 8 9 1007.8 1007.8 0.0
10/05:30pm 30.7 33.6 23.9 67 4.7 ENE 15 19 8 10 1007.6 - 0.0
10/05:00pm 31.1 33.9 23.7 64 5.1 E 15 19 8 10 1007.8 - 0.0
10/04:30pm 30.9 34.1 24.3 68 4.6 E 15 17 8 9 1008.0 - 0.0
10/04:00pm 31.0 34.4 24.6 68 4.5 ENE 15 19 8 10 1008.0 - 0.0
10/03:30pm 31.4 34.7 24.5 67 4.8 E 15 19 8 10 1008.3 - 0.0
10/03:00pm 31.5 35.2 25.1 69 4.5 E 15 19 8 10 1008.8 1008.8 0.0
10/02:30pm 31.0 34.2 24.4 68 4.6 ENE 15 20 8 11 1008.7 - 0.0
10/02:00pm 31.0 34.7 24.6 68 4.5 ENE 13 17 7 9 1008.9 - 0.0
10/01:30pm 30.7 33.8 23.6 66 4.9 ENE 13 17 7 9 1009.1 - 0.0
10/01:00pm 31.3 35.6 24.9 69 4.5 ENE 11 17 6 9 1009.5 - 0.0
10/12:30pm 30.6 33.8 24.3 69 4.4 ENE 15 17 8 9 1009.7 - 0.0
10/12:00pm 30.5 34.0 24.2 69 4.4 ENE 13 17 7 9 1010.0 1010.0 0.0
10/11:30am 30.6 33.6 24.0 68 4.6 E 15 19 8 10 1010.0 - 0.0
10/11:00am 30.6 33.6 24.0 68 4.6 ENE 15 20 8 11 1010.2 - 0.0
10/10:30am 30.3 33.5 24.4 70 4.1 ENE 15 19 8 10 1010.3 - 0.0
10/10:00am 30.5 34.1 24.4 70 4.3 ENE 13 17 7 9 1010.4 - 0.0
10/09:30am 30.3 33.7 24.0 69 4.4 ENE 13 17 7 9 1010.3 - 0.0
10/09:00am 30.4 34.1 24.5 70 4.1 E 13 20 7 11 1010.3 1010.3 39.2
10/08:30am 30.2 33.5 23.9 69 4.4 ENE 13 17 7 9 1009.9 - 39.0
10/08:00am 29.8 32.8 24.0 71 4.0 ENE 15 17 8 9 1009.5 - 39.0
10/07:30am 29.6 32.5 23.8 71 4.0 ENE 15 17 8 9 1009.3 - 39.0
10/07:00am 29.6 33.1 24.2 73 3.8 ENE 13 15 7 8 1009.2 - 39.0
10/06:30am 29.1 32.1 23.3 71 4.0 ENE 13 17 7 9 1008.9 - 39.0
10/06:00am 29.5 33.1 24.4 74 3.6 ENE 13 15 7 8 1008.7 1008.7 39.0
10/05:30am 29.2 32.1 23.9 73 3.7 NE 15 19 8 10 1008.3 - 39.0
10/05:00am 29.3 32.8 24.8 77 3.1 NE 15 19 8 10 1008.0 - 39.0
10/04:30am 29.2 32.5 24.5 76 3.3 ENE 15 17 8 9 1007.9 - 39.0
10/04:00am 29.1 32.6 24.2 75 3.4 ENE 13 17 7 9 1007.9 - 39.0
10/03:30am 29.2 32.4 25.0 78 2.9 NE 17 20 9 11 1007.7 - 39.0
10/03:00am 29.1 32.4 25.1 79 2.8 NE 17 19 9 10 1007.8 1007.8 39.0
10/02:30am 29.2 32.8 25.0 78 2.9 NE 15 19 8 10 1008.1 - 39.0
10/02:00am 29.3 33.0 25.1 78 2.9 ENE 15 17 8 9 1008.1 - 39.0
10/01:30am 29.2 32.6 25.2 79 2.8 ENE 17 20 9 11 1008.4 - 39.0
10/01:00am 29.3 32.2 25.1 78 2.9 ENE 19 22 10 12 1008.7 - 39.0
10/12:30am 29.3 32.3 24.6 76 3.3 ENE 17 20 9 11 1008.9 - 39.0
10/12:00am 29.4 31.6 23.3 69 4.2 ENE 17 20 9 11 1009.2 1009.2 39.0

Other Formats:

Comma delimited format used in spreadsheet applications
http://www.bom.gov.au/fwo/IDD60801/IDD60801.94135.axf

JavaScript Object Notation format (JSON) in row-major order
http://www.bom.gov.au/fwo/IDD60801/IDD60801.94135.json